Time;durP1;ratioP1;P1;durP2;ratioP2;P2;SDS_P1;SDS_P2;PMS_P1;PMS_P2;Temp;Humidity;BMP_temperature;BMP_pressure;BME280_temperature;BME280_humidity;BME280_pressure;Samples;Min_cycle;Max_cycle;Signal;HPM_P1;HPM_P2
2021/08/20 00:01:41;;;;;;;31.20;24.15;;;16.10;93.00;;;;;;5096336;28;20024;-77
2021/08/20 00:04:06;;;;;;;25.77;22.38;;;16.10;93.00;;;;;;5101841;28;20048;-77
2021/08/20 00:06:33;;;;;;;26.65;22.85;;;16.00;93.00;;;;;;5114720;28;20028;-78
2021/08/20 00:08:59;;;;;;;26.35;22.23;;;16.00;92.90;;;;;;5113584;28;20047;-78
2021/08/20 00:11:24;;;;;;;27.70;22.95;;;16.00;92.90;;;;;;5103491;28;20595;-78
2021/08/20 00:13:50;;;;;;;27.95;21.95;;;16.10;93.00;;;;;;5096381;28;20020;-78
2021/08/20 00:16:16;;;;;;;27.20;22.20;;;16.10;93.00;;;;;;5096181;28;20028;-78
2021/08/20 00:18:41;;;;;;;24.63;21.23;;;16.00;92.90;;;;;;5096462;28;20032;-78
2021/08/20 00:21:09;;;;;;;29.48;22.00;;;16.00;93.00;;;;;;5095670;28;20024;-79
2021/08/20 00:23:34;;;;;;;27.05;22.42;;;16.00;93.00;;;;;;5096234;28;20123;-79
2021/08/20 00:26:00;;;;;;;24.73;21.30;;;15.90;93.00;;;;;;5094503;28;20023;-79
2021/08/20 00:28:26;;;;;;;23.08;20.38;;;15.90;93.00;;;;;;5096237;28;20501;-78
2021/08/20 00:30:51;;;;;;;25.02;21.02;;;15.90;93.10;;;;;;5094573;28;20024;-78
2021/08/20 00:33:17;;;;;;;27.77;21.20;;;15.80;93.00;;;;;;5094586;28;20031;-78
2021/08/20 00:35:43;;;;;;;27.55;21.92;;;15.80;93.00;;;;;;5096205;28;20028;-77
2021/08/20 00:38:09;;;;;;;28.27;21.70;;;15.70;93.00;;;;;;5094676;28;20376;-79
2021/08/20 00:40:35;;;;;;;28.35;23.13;;;15.70;93.10;;;;;;5094733;28;20412;-78
2021/08/20 00:43:01;;;;;;;27.75;22.38;;;15.70;93.10;;;;;;5094267;28;20028;-78
2021/08/20 00:45:26;;;;;;;28.42;23.15;;;15.60;93.10;;;;;;5095743;28;20024;-79
2021/08/20 00:47:52;;;;;;;27.90;22.17;;;15.60;93.10;;;;;;5095240;28;20487;-78
2021/08/20 00:50:18;;;;;;;30.38;21.45;;;15.60;93.10;;;;;;5096480;28;20024;-78
2021/08/20 00:52:45;;;;;;;23.38;17.17;;;15.60;93.20;;;;;;5098456;28;20059;-78
2021/08/20 00:55:13;;;;;;;26.92;20.52;;;15.60;93.20;;;;;;5099120;28;20050;-77
2021/08/20 00:57:40;;;;;;;22.50;18.77;;;15.60;93.20;;;;;;5096048;28;20021;-78
2021/08/20 01:00:06;;;;;;;23.58;19.27;;;15.60;93.20;;;;;;5094185;28;20032;-78
2021/08/20 01:02:32;;;;;;;25.63;20.50;;;15.60;93.10;;;;;;5095565;28;20047;-79
2021/08/20 01:05:01;;;;;;;27.52;21.60;;;15.50;93.10;;;;;;5093963;28;20016;-78
2021/08/20 01:07:28;;;;;;;29.75;21.88;;;15.60;93.10;;;;;;5093672;28;20027;-78
2021/08/20 01:09:53;;;;;;;26.30;19.52;;;15.50;93.10;;;;;;5094466;28;20020;-79
2021/08/20 01:12:19;;;;;;;24.92;20.15;;;15.50;93.10;;;;;;5094236;28;20415;-78
2021/08/20 01:14:49;;;;;;;25.48;19.90;;;15.60;93.10;;;;;;5094156;28;20021;-79
2021/08/20 01:17:15;;;;;;;;;;;15.60;93.00;;;;;;5094168;28;20039;-79
2021/08/20 01:19:44;;;;;;;27.75;21.85;;;15.60;93.00;;;;;;5094143;28;19908;-79
2021/08/20 01:22:10;;;;;;;23.90;19.20;;;15.60;93.00;;;;;;5093800;28;20496;-80
2021/08/20 01:24:36;;;;;;;30.75;22.48;;;15.60;93.00;;;;;;5102259;28;20054;-78
2021/08/20 01:27:02;;;;;;;24.75;20.42;;;15.50;92.90;;;;;;5095480;28;20028;-79
2021/08/20 01:29:27;;;;;;;27.00;19.90;;;15.50;93.00;;;;;;5093897;28;20043;-78
2021/08/20 01:31:53;;;;;;;25.30;20.13;;;15.50;92.90;;;;;;5093742;28;20028;-79
2021/08/20 01:34:19;;;;;;;28.45;22.15;;;15.50;92.90;;;;;;5098179;28;20027;-78
2021/08/20 01:36:44;;;;;;;25.23;19.85;;;15.50;92.90;;;;;;5099956;28;20035;-78
2021/08/20 01:39:10;;;;;;;21.48;16.63;;;15.40;92.90;;;;;;5101242;28;20031;-78
2021/08/20 01:41:36;;;;;;;29.02;20.73;;;15.50;93.00;;;;;;5096765;28;20042;-80
2021/08/20 01:44:04;;;;;;;26.88;20.38;;;15.50;93.00;;;;;;5093445;28;20024;-80
2021/08/20 01:46:33;;;;;;;28.65;21.05;;;15.40;93.00;;;;;;5093654;28;20024;-78
2021/08/20 01:49:03;;;;;;;24.33;20.40;;;15.40;93.00;;;;;;5093249;28;20027;-80
2021/08/20 01:51:29;;;;;;;23.57;19.30;;;15.40;92.90;;;;;;5095874;28;20046;-79
2021/08/20 01:53:56;;;;;;;24.85;19.30;;;15.40;92.90;;;;;;5104300;28;20020;-80
2021/08/20 01:56:27;;;;;;;18.05;15.88;;;15.50;93.00;;;;;;5112201;28;20020;-80
2021/08/20 01:58:55;;;;;;;22.38;17.60;;;15.40;93.00;;;;;;5103047;28;20525;-80
2021/08/20 02:01:21;;;;;;;23.70;19.10;;;15.40;93.00;;;;;;5106087;28;20035;-82
2021/08/20 02:03:46;;;;;;;23.48;19.23;;;15.30;93.00;;;;;;5097818;28;20024;-79
2021/08/20 02:06:12;;;;;;;22.35;18.15;;;15.30;93.00;;;;;;5103037;28;20042;-80
2021/08/20 02:08:38;;;;;;;22.92;17.85;;;15.30;93.00;;;;;;5103497;28;20043;-80
2021/08/20 02:11:04;;;;;;;24.38;18.73;;;15.30;93.00;;;;;;5097088;28;20019;-78
2021/08/20 02:13:30;;;;;;;28.88;20.77;;;15.30;93.20;;;;;;5094231;28;20365;-80
2021/08/20 02:15:56;;;;;;;24.33;19.00;;;15.40;92.90;;;;;;5094045;28;20073;-80
2021/08/20 02:18:22;;;;;;;26.88;19.58;;;15.40;92.80;;;;;;5092293;28;20123;-81
2021/08/20 02:20:48;;;;;;;23.73;17.90;;;15.40;92.80;;;;;;5092852;28;20086;-79
2021/08/20 02:23:13;;;;;;;28.63;18.95;;;15.40;92.80;;;;;;5093854;28;20084;-81
2021/08/20 02:25:39;;;;;;;24.95;19.83;;;15.40;92.70;;;;;;5092650;28;20111;-80
2021/08/20 02:28:05;;;;;;;21.63;19.13;;;15.50;92.70;;;;;;5092011;28;20035;-81
2021/08/20 02:30:34;;;;;;;24.60;19.40;;;15.50;92.60;;;;;;5094162;28;20024;-80
2021/08/20 02:33:00;;;;;;;23.35;17.55;;;15.50;92.60;;;;;;5092481;28;20035;-80
2021/08/20 02:35:26;;;;;;;25.88;19.63;;;15.60;92.60;;;;;;5092607;28;20032;-80
2021/08/20 02:37:53;;;;;;;24.17;19.55;;;15.60;92.60;;;;;;5103035;28;20149;-80
2021/08/20 02:40:19;;;;;;;27.10;19.85;;;15.60;92.50;;;;;;5092037;28;20028;-80
2021/08/20 02:42:45;;;;;;;21.73;15.82;;;15.60;92.50;;;;;;5092371;28;20047;-79
2021/08/20 02:45:11;;;;;;;20.33;16.30;;;15.60;92.50;;;;;;5092088;28;20024;-79
2021/08/20 02:47:37;;;;;;;21.80;16.80;;;15.60;92.40;;;;;;5092332;28;20024;-78
2021/08/20 02:50:04;;;;;;;25.60;18.48;;;15.60;92.40;;;;;;5093679;28;20024;-79
2021/08/20 02:52:29;;;;;;;23.60;19.85;;;15.60;92.40;;;;;;5093685;28;20024;-79
2021/08/20 02:54:55;;;;;;;24.67;19.40;;;15.60;92.30;;;;;;5092277;28;20035;-78
2021/08/20 02:57:23;;;;;;;23.77;19.45;;;15.60;92.30;;;;;;5093344;28;20434;-78
2021/08/20 02:59:51;;;;;;;24.38;20.10;;;15.70;92.40;;;;;;5092211;28;20030;-79
2021/08/20 03:02:17;;;;;;;26.85;21.55;;;15.70;92.40;;;;;;5093157;28;20051;-80
2021/08/20 03:04:43;;;;;;;29.63;19.92;;;15.60;92.30;;;;;;5092470;28;20024;-79
2021/08/20 03:07:09;;;;;;;24.25;19.88;;;15.70;92.60;;;;;;5092276;28;20071;-79
2021/08/20 03:09:34;;;;;;;29.63;21.40;;;15.70;92.30;;;;;;5093141;28;20027;-78
2021/08/20 03:12:00;;;;;;;22.25;17.92;;;15.60;92.30;;;;;;5092602;28;20024;-78
2021/08/20 03:14:26;;;;;;;31.67;20.50;;;15.70;92.30;;;;;;5102908;28;20020;-78
2021/08/20 03:16:51;;;;;;;29.60;22.88;;;15.70;92.30;;;;;;5092145;28;20383;-78
2021/08/20 03:19:17;;;;;;;29.48;22.35;;;15.70;92.30;;;;;;5091704;28;20028;-78
2021/08/20 03:21:43;;;;;;;29.02;21.83;;;15.70;92.20;;;;;;5091966;28;20031;-78
2021/08/20 03:24:09;;;;;;;29.17;21.88;;;15.70;92.20;;;;;;5092970;28;20024;-78
2021/08/20 03:26:34;;;;;;;31.48;21.45;;;15.70;92.30;;;;;;5093298;28;20031;-77
2021/08/20 03:29:01;;;;;;;31.13;23.00;;;15.70;92.30;;;;;;5093075;28;20020;-78
2021/08/20 03:31:27;;;;;;;31.13;23.23;;;15.70;92.30;;;;;;5098554;28;20024;-78
2021/08/20 03:33:54;;;;;;;35.50;22.17;;;15.70;92.30;;;;;;5099106;28;20048;-77
2021/08/20 03:36:21;;;;;;;25.35;19.83;;;15.70;92.40;;;;;;5098712;28;20027;-78
2021/08/20 03:38:47;;;;;;;27.75;21.80;;;15.70;92.40;;;;;;5101292;28;20136;-78
2021/08/20 03:41:12;;;;;;;32.65;24.33;;;15.70;92.40;;;;;;5101156;28;20030;-78
2021/08/20 03:43:38;;;;;;;33.38;24.75;;;15.70;92.40;;;;;;5109064;28;20016;-78
2021/08/20 03:46:06;;;;;;;25.75;18.85;;;15.70;92.50;;;;;;5105087;28;20032;-79
2021/08/20 03:48:33;;;;;;;30.05;23.42;;;15.80;92.50;;;;;;5096016;28;20026;-78
2021/08/20 03:50:59;;;;;;;33.50;24.13;;;15.70;92.50;;;;;;5099346;28;20024;-78
2021/08/20 03:53:24;;;;;;;35.70;25.52;;;15.80;92.60;;;;;;5092558;28;20032;-77
2021/08/20 03:55:50;;;;;;;29.17;22.58;;;15.80;92.60;;;;;;5092733;28;20020;-78
2021/08/20 03:58:16;;;;;;;33.55;23.48;;;15.70;92.70;;;;;;5091355;28;20032;-79
2021/08/20 04:00:45;;;;;;;32.20;22.85;;;15.70;92.70;;;;;;5092774;28;20020;-78
2021/08/20 04:03:11;;;;;;;31.35;22.33;;;15.80;92.70;;;;;;5091327;28;20427;-77
2021/08/20 04:05:36;;;;;;;29.88;22.60;;;15.80;92.80;;;;;;5092981;28;20024;-78
2021/08/20 04:08:02;;;;;;;26.73;19.85;;;15.80;92.80;;;;;;5092310;28;20034;-78
2021/08/20 04:10:27;;;;;;;32.85;22.58;;;15.70;92.80;;;;;;5105675;28;20046;-77
2021/08/20 04:12:53;;;;;;;34.25;21.85;;;15.80;92.90;;;;;;5101203;28;20025;-78
2021/08/20 04:15:19;;;;;;;33.65;25.20;;;15.80;92.90;;;;;;5091029;28;20555;-78
2021/08/20 04:17:44;;;;;;;33.55;25.58;;;15.80;92.90;;;;;;5090949;28;20060;-78
2021/08/20 04:20:10;;;;;;;34.00;24.52;;;15.90;92.90;;;;;;5090823;28;20058;-79
2021/08/20 04:22:36;;;;;;;41.38;26.33;;;15.80;92.90;;;;;;5091010;28;20119;-78
2021/08/20 04:25:03;;;;;;;33.03;24.33;;;15.80;92.90;;;;;;5092358;28;20108;-79
2021/08/20 04:27:28;;;;;;;35.58;25.00;;;15.90;92.90;;;;;;5093519;28;20028;-78
2021/08/20 04:29:54;;;;;;;33.03;22.70;;;15.80;92.90;;;;;;5092635;28;20377;-78
2021/08/20 04:32:19;;;;;;;34.42;25.20;;;15.90;93.00;;;;;;5090490;28;20472;-78
2021/08/20 04:34:45;;;;;;;38.78;24.60;;;15.90;93.00;;;;;;5091084;28;20032;-78
2021/08/20 04:37:11;;;;;;;32.08;22.95;;;15.80;93.00;;;;;;5092279;28;20024;-79
2021/08/20 04:39:36;;;;;;;34.45;23.95;;;15.90;93.00;;;;;;5090844;28;20024;-79
2021/08/20 04:42:02;;;;;;;37.17;26.00;;;15.90;93.10;;;;;;5091391;28;20020;-79
2021/08/20 04:44:28;;;;;;;31.38;24.48;;;15.90;93.10;;;;;;5095443;28;20024;-78
2021/08/20 04:46:53;;;;;;;35.75;24.17;;;15.90;93.10;;;;;;5095428;28;20082;-79
2021/08/20 04:49:19;;;;;;;32.58;22.92;;;15.90;93.10;;;;;;5093767;28;20082;-79
2021/08/20 04:51:44;;;;;;;32.67;22.15;;;15.90;93.00;;;;;;5094341;28;20049;-78
2021/08/20 04:54:11;;;;;;;32.97;23.67;;;16.00;93.10;;;;;;5094301;28;20027;-77
2021/08/20 04:56:37;;;;;;;37.00;26.20;;;15.90;93.10;;;;;;5095774;28;20020;-78
2021/08/20 04:59:02;;;;;;;36.95;25.70;;;16.00;93.10;;;;;;5094374;28;20016;-79
2021/08/20 05:01:28;;;;;;;29.50;21.45;;;15.90;92.70;;;;;;5095602;28;20043;-79
2021/08/20 05:03:54;;;;;;;36.80;26.20;;;15.90;92.80;;;;;;5098075;28;20058;-79
2021/08/20 05:06:19;;;;;;;34.08;24.73;;;16.00;93.00;;;;;;5096156;28;20025;-79
2021/08/20 05:08:45;;;;;;;36.25;25.63;;;15.90;92.80;;;;;;5095304;28;20481;-79
2021/08/20 05:11:11;;;;;;;32.25;22.60;;;16.00;93.00;;;;;;5093782;28;20346;-78
2021/08/20 05:13:36;;;;;;;39.40;27.88;;;15.90;93.00;;;;;;5093991;28;20416;-79
2021/08/20 05:16:02;;;;;;;34.03;24.02;;;15.90;93.00;;;;;;5095012;28;20495;-78
2021/08/20 05:18:27;;;;;;;37.95;26.38;;;15.90;93.00;;;;;;5093316;28;20028;-78
2021/08/20 05:20:53;;;;;;;37.05;25.90;;;15.90;93.10;;;;;;5095643;28;20110;-79
2021/08/20 05:23:19;;;;;;;35.47;24.42;;;15.90;93.20;;;;;;5093787;28;20020;-78
2021/08/20 05:25:44;;;;;;;35.97;25.05;;;16.00;93.20;;;;;;5094241;28;20052;-79
2021/08/20 05:28:12;;;;;;;38.33;25.73;;;16.00;93.20;;;;;;5097833;28;20463;-79
2021/08/20 05:30:38;;;;;;;27.42;20.38;;;15.90;93.20;;;;;;5106534;28;20016;-79
2021/08/20 05:33:04;;;;;;;33.42;24.13;;;16.00;92.80;;;;;;5110069;28;20095;-78
2021/08/20 05:35:29;;;;;;;34.80;24.35;;;15.90;92.90;;;;;;5105588;28;20028;-77
2021/08/20 05:37:55;;;;;;;35.70;23.73;;;15.90;93.10;;;;;;5101171;28;20472;-78
2021/08/20 05:40:21;;;;;;;32.50;22.95;;;15.90;93.00;;;;;;5104487;28;20035;-78
2021/08/20 05:42:47;;;;;;;38.63;26.00;;;15.90;93.00;;;;;;5098174;28;20016;-78
2021/08/20 05:45:12;;;;;;;35.17;25.13;;;16.00;93.20;;;;;;5093208;28;20124;-78
2021/08/20 05:47:38;;;;;;;32.67;22.88;;;16.00;93.20;;;;;;5093571;28;20122;-78
2021/08/20 05:50:05;;;;;;;31.42;22.10;;;16.00;93.30;;;;;;5094869;28;20342;-79
2021/08/20 05:52:33;;;;;;;34.65;23.02;;;16.00;93.30;;;;;;5092899;28;20021;-78
2021/08/20 05:54:59;;;;;;;32.20;23.17;;;16.10;93.30;;;;;;5094258;28;20521;-79
2021/08/20 05:57:25;;;;;;;35.55;21.92;;;16.10;93.20;;;;;;5093267;28;20043;-79
2021/08/20 05:59:51;;;;;;;37.35;23.67;;;16.10;93.50;;;;;;5094712;28;20495;-79
2021/08/20 06:02:16;;;;;;;32.75;21.58;;;16.20;93.30;;;;;;5094563;28;20036;-79
2021/08/20 06:04:42;;;;;;;35.75;25.08;;;16.20;93.20;;;;;;5094893;28;20024;-79
2021/08/20 06:07:08;;;;;;;37.92;25.05;;;16.20;93.20;;;;;;5093892;28;20418;-77
2021/08/20 06:09:34;;;;;;;37.58;25.02;;;16.20;93.30;;;;;;5094369;28;20016;-78
2021/08/20 06:11:59;;;;;;;36.45;24.65;;;16.20;93.30;;;;;;5098748;28;20016;-77
2021/08/20 06:14:25;;;;;;;34.75;24.80;;;16.30;93.20;;;;;;5100973;28;20065;-76
2021/08/20 06:16:55;;;;;;;39.75;26.48;;;16.40;93.20;;;;;;5099160;28;20080;-79
2021/08/20 06:19:24;;;;;;;33.90;22.93;;;16.40;93.20;;;;;;5098328;28;20047;-78
2021/08/20 06:21:51;;;;;;;38.13;25.63;;;16.40;93.30;;;;;;5094149;28;20429;-79
2021/08/20 06:24:17;;;;;;;35.80;26.08;;;16.30;93.20;;;;;;5094116;28;20032;-79
2021/08/20 06:26:45;;;;;;;32.00;23.40;;;16.40;93.20;;;;;;5092560;28;20421;-79
2021/08/20 06:29:11;;;;;;;37.30;24.92;;;16.50;93.30;;;;;;5093733;28;20024;-79
2021/08/20 06:31:37;;;;;;;34.30;24.55;;;16.50;93.30;;;;;;5092474;28;20020;-79
2021/08/20 06:34:03;;;;;;;30.90;21.15;;;16.50;93.30;;;;;;5092806;28;20368;-79
2021/08/20 06:36:28;;;;;;;36.63;24.35;;;16.60;93.30;;;;;;5093491;28;20028;-80
2021/08/20 06:38:54;;;;;;;40.17;25.35;;;16.70;93.30;;;;;;5092525;28;20020;-79
2021/08/20 06:41:19;;;;;;;30.00;22.17;;;16.80;93.30;;;;;;5093715;28;20484;-80
2021/08/20 06:43:45;;;;;;;31.40;21.40;;;17.00;93.10;;;;;;5093646;28;20024;-80
2021/08/20 06:46:10;;;;;;;36.67;24.35;;;17.20;92.80;;;;;;5093523;28;20024;-80
2021/08/20 06:48:36;;;;;;;29.88;19.98;;;17.20;92.40;;;;;;5092039;28;20526;-80
2021/08/20 06:51:01;;;;;;;32.05;23.45;;;17.30;92.20;;;;;;5092684;28;20066;-79
2021/08/20 06:53:28;;;;;;;33.72;22.58;;;17.50;92.20;;;;;;5098006;28;20042;-79
2021/08/20 06:55:53;;;;;;;29.08;21.40;;;17.50;92.10;;;;;;5095807;28;20078;-79
2021/08/20 06:58:19;;;;;;;23.60;16.15;;;17.40;92.00;;;;;;5091843;28;20464;-79
2021/08/20 07:00:45;;;;;;;25.70;18.08;;;17.40;91.70;;;;;;5093548;28;20117;-78
2021/08/20 07:03:10;;;;;;;25.77;18.23;;;17.40;91.80;;;;;;5092160;28;20027;-79
2021/08/20 07:05:36;;;;;;;25.52;18.55;;;17.50;91.80;;;;;;5092991;28;20065;-80
2021/08/20 07:08:05;;;;;;;28.15;18.45;;;17.50;91.70;;;;;;5092896;28;20085;-80
2021/08/20 07:10:30;;;;;;;21.33;16.63;;;17.50;91.90;;;;;;5092705;28;20055;-79
2021/08/20 07:12:56;;;;;;;25.15;18.98;;;17.60;91.80;;;;;;5093095;28;20152;-80
2021/08/20 07:15:21;;;;;;;21.70;16.85;;;17.60;91.90;;;;;;5094927;28;20055;-81
2021/08/20 07:17:47;;;;;;;25.25;16.85;;;17.70;91.80;;;;;;5096524;28;20027;-78
2021/08/20 07:20:13;;;;;;;26.95;20.40;;;17.80;91.80;;;;;;5104115;28;20052;-79
2021/08/20 07:22:38;;;;;;;25.20;19.13;;;18.00;92.10;;;;;;5109932;28;20028;-79
2021/08/20 07:25:05;;;;;;;28.70;20.70;;;18.20;91.50;;;;;;5099261;28;20016;-79
2021/08/20 07:27:30;;;;;;;21.95;17.05;;;18.20;91.20;;;;;;5092618;28;20472;-78
2021/08/20 07:29:56;;;;;;;22.05;14.77;;;18.20;91.20;;;;;;5095487;28;20039;-79
2021/08/20 07:32:21;;;;;;;21.25;16.48;;;18.20;91.00;;;;;;5094986;28;20157;-79
2021/08/20 07:34:47;;;;;;;22.25;17.33;;;18.20;88.30;;;;;;5098422;28;20016;-79
2021/08/20 07:37:12;;;;;;;26.92;19.92;;;18.20;90.30;;;;;;5096011;28;20023;-78
2021/08/20 07:39:38;;;;;;;22.52;18.17;;;18.20;90.60;;;;;;5101451;28;20084;-78
2021/08/20 07:42:05;;;;;;;21.88;18.40;;;18.30;90.40;;;;;;5095647;28;20465;-79
2021/08/20 07:44:31;;;;;;;28.33;20.02;;;18.30;90.70;;;;;;5093515;28;20027;-78
2021/08/20 07:46:57;;;;;;;30.40;21.42;;;18.30;90.90;;;;;;5091853;28;20020;-79
2021/08/20 07:49:23;;;;;;;28.73;22.98;;;18.30;90.90;;;;;;5091686;28;20024;-79
2021/08/20 07:51:49;;;;;;;24.50;19.30;;;18.30;91.10;;;;;;5092958;28;20021;-78
2021/08/20 07:54:14;;;;;;;26.23;20.67;;;18.30;91.00;;;;;;5093008;28;20027;-79
2021/08/20 07:56:40;;;;;;;27.05;21.27;;;18.40;91.10;;;;;;5091370;28;20385;-78
2021/08/20 07:59:06;;;;;;;23.90;19.88;;;18.50;91.20;;;;;;5092961;28;20028;-78
2021/08/20 08:01:31;;;;;;;29.17;23.17;;;18.60;91.30;;;;;;5091656;28;20119;-79
2021/08/20 08:03:57;;;;;;;22.30;18.00;;;18.70;91.10;;;;;;5092082;28;20371;-79
2021/08/20 08:06:26;;;;;;;21.73;18.13;;;18.90;90.60;;;;;;5091960;28;20016;-79
2021/08/20 08:08:53;;;;;;;24.45;19.98;;;19.10;90.40;;;;;;5092367;28;20448;-79
2021/08/20 08:11:18;;;;;;;20.65;18.45;;;19.20;87.90;;;;;;5094710;28;20034;-79
2021/08/20 08:13:44;;;;;;;22.40;16.40;;;19.20;88.50;;;;;;5107167;28;20020;-79
2021/08/20 08:16:10;;;;;;;29.52;23.23;;;19.20;88.10;;;;;;5102291;28;20115;-80
2021/08/20 08:18:35;;;;;;;27.33;24.00;;;19.20;88.90;;;;;;5093919;28;20118;-78
2021/08/20 08:21:01;;;;;;;23.90;18.58;;;19.10;89.00;;;;;;5094906;28;20020;-78
2021/08/20 08:23:27;;;;;;;24.05;19.75;;;19.00;89.50;;;;;;5095156;28;20408;-78
2021/08/20 08:25:53;;;;;;;24.10;19.95;;;19.00;89.80;;;;;;5096313;28;20426;-79
2021/08/20 08:28:23;;;;;;;19.17;16.52;;;19.10;90.00;;;;;;5094839;28;20126;-78
2021/08/20 08:30:49;;;;;;;26.00;18.67;;;19.20;89.50;;;;;;5095068;28;20031;-80
2021/08/20 08:33:17;;;;;;;25.83;19.83;;;19.50;89.60;;;;;;5094875;28;20020;-79
2021/08/20 08:35:43;;;;;;;21.70;15.70;;;19.80;88.90;;;;;;5094567;28;20021;-79
2021/08/20 08:38:12;;;;;;;18.35;15.20;;;20.00;88.30;;;;;;5094672;28;20365;-78
2021/08/20 08:40:39;;;;;;;20.85;16.83;;;20.20;87.70;;;;;;5094513;28;20028;-79
2021/08/20 08:43:07;;;;;;;17.30;14.73;;;20.30;87.60;;;;;;5094696;28;20016;-78
2021/08/20 08:45:33;;;;;;;18.92;15.18;;;20.40;87.20;;;;;;5094351;28;20103;-78
2021/08/20 08:48:02;;;;;;;19.30;13.57;;;20.50;86.00;;;;;;5096055;28;20024;-78
2021/08/20 08:50:28;;;;;;;16.33;12.63;;;20.60;84.70;;;;;;5095485;28;20027;-78
2021/08/20 08:52:54;;;;;;;20.15;16.75;;;20.70;82.00;;;;;;5097026;28;20032;-78
2021/08/20 08:55:19;;;;;;;15.95;13.63;;;21.00;82.50;;;;;;5099473;28;20031;-80
2021/08/20 08:57:45;;;;;;;17.55;14.10;;;21.30;80.30;;;;;;5095202;28;20020;-79
2021/08/20 09:00:11;;;;;;;16.02;14.32;;;21.60;80.90;;;;;;5096084;28;20028;-79
2021/08/20 09:02:37;;;;;;;20.20;16.50;;;21.70;78.70;;;;;;5094384;28;20449;-78
2021/08/20 09:05:06;;;;;;;19.60;14.90;;;21.60;78.50;;;;;;5097313;28;20024;-77
2021/08/20 09:07:34;;;;;;;16.63;13.93;;;21.40;79.10;;;;;;5103893;28;20020;-79
2021/08/20 09:10:18;;;;;;;13.13;11.68;;;21.30;79.80;;;;;;5110853;28;20024;-78
2021/08/20 09:12:50;;;;;;;17.33;14.95;;;21.30;80.00;;;;;;5102401;28;20070;-78
2021/08/20 09:15:17;;;;;;;13.82;11.85;;;21.30;79.90;;;;;;5099980;28;20031;-79
2021/08/20 09:17:53;;;;;;;15.52;13.02;;;21.30;79.20;;;;;;5094796;28;20032;-78
2021/08/20 09:20:26;;;;;;;14.50;12.60;;;21.20;78.90;;;;;;5095361;28;20027;-79
2021/08/20 09:22:54;;;;;;;18.83;15.88;;;21.20;80.10;;;;;;5093736;28;20016;-79
2021/08/20 09:25:43;;;;;;;15.85;11.73;;;21.20;79.70;;;;;;5095503;28;20024;-79
2021/08/20 09:28:21;;;;;;;16.85;13.55;;;21.10;80.20;;;;;;5093408;28;20024;-79
2021/08/20 09:30:58;;;;;;;15.02;13.35;;;21.10;80.00;;;;;;5094960;28;20028;-77
2021/08/20 09:33:30;;;;;;;16.17;14.15;;;21.30;80.00;;;;;;5093748;28;20024;-78
2021/08/20 09:36:03;;;;;;;16.92;14.70;;;21.50;79.60;;;;;;5099473;28;20070;-78
2021/08/20 09:38:30;;;;;;;17.98;12.93;;;21.60;78.70;;;;;;5095735;28;20024;-78
2021/08/20 09:41:00;;;;;;;12.48;9.63;;;21.50;78.70;;;;;;5100186;28;20030;-78
2021/08/20 09:43:32;;;;;;;14.80;12.32;;;21.60;77.40;;;;;;5094789;28;20362;-78
2021/08/20 09:46:06;;;;;;;14.55;12.48;;;21.80;78.30;;;;;;5093380;28;20023;-79
2021/08/20 09:48:59;;;;;;;12.95;10.90;;;21.90;77.20;;;;;;5093094;28;20074;-78
2021/08/20 09:51:35;;;;;;;17.58;14.57;;;21.80;77.20;;;;;;5094575;28;20031;-77
2021/08/20 09:54:09;;;;;;;15.05;13.40;;;21.80;77.20;;;;;;5094374;28;20020;-79
2021/08/20 09:56:36;;;;;;;11.05;9.43;;;21.70;77.20;;;;;;5095193;28;20055;-78
2021/08/20 09:59:07;;;;;;;15.18;12.80;;;21.60;76.70;;;;;;5093606;28;20427;-79
2021/08/20 10:01:36;;;;;;;17.60;12.02;;;21.60;77.10;;;;;;5094163;28;20024;-77
2021/08/20 10:04:04;;;;;;;13.60;10.63;;;21.80;77.60;;;;;;5093211;28;20020;-78
2021/08/20 10:06:50;;;;;;;14.90;12.30;;;21.90;76.50;;;;;;5094999;28;20020;-77
2021/08/20 10:09:20;;;;;;;23.77;13.45;;;22.00;76.60;;;;;;5093502;28;20093;-77
2021/08/20 10:11:47;;;;;;;16.77;13.73;;;22.10;76.30;;;;;;5094530;28;20447;-78
2021/08/20 10:14:13;;;;;;;14.88;10.50;;;22.20;75.90;;;;;;5104334;28;20040;-78
2021/08/20 10:16:40;;;;;;;14.82;11.07;;;22.50;75.60;;;;;;5106116;28;20103;-79
2021/08/20 10:19:08;;;;;;;17.65;11.55;;;22.60;75.10;;;;;;5092993;28;20536;-78
2021/08/20 10:21:37;;;;;;;16.25;10.98;;;22.60;74.10;;;;;;5092525;28;20032;-78
2021/08/20 10:24:04;;;;;;;12.52;9.65;;;22.60;74.30;;;;;;5094497;28;20031;-77
2021/08/20 10:26:31;;;;;;;13.27;9.60;;;22.70;74.20;;;;;;5092486;28;20020;-78
2021/08/20 10:29:02;;;;;;;13.63;10.40;;;22.60;72.70;;;;;;5093435;28;20085;-78
2021/08/20 10:31:30;;;;;;;12.68;8.77;;;22.50;73.20;;;;;;5093747;28;20024;-78
2021/08/20 10:33:55;;;;;;;10.32;8.10;;;22.40;73.00;;;;;;5092886;28;20031;-78
2021/08/20 10:36:40;;;;;;;11.68;8.23;;;22.30;73.70;;;;;;5092066;28;20023;-78
2021/08/20 10:39:07;;;;;;;13.45;10.13;;;22.30;73.40;;;;;;5092103;28;20027;-78
2021/08/20 10:41:33;;;;;;;10.13;8.50;;;22.40;73.70;;;;;;5092791;28;20050;-78
2021/08/20 10:44:10;;;;;;;10.52;8.35;;;22.50;73.80;;;;;;5093998;28;20064;-77
2021/08/20 10:46:36;;;;;;;12.98;8.55;;;22.50;73.70;;;;;;5092080;28;20047;-77
2021/08/20 10:49:23;;;;;;;13.68;10.30;;;22.50;73.10;;;;;;5092720;28;20376;-77
2021/08/20 10:51:49;;;;;;;12.55;7.10;;;22.40;72.60;;;;;;5092297;28;20016;-78
2021/08/20 10:54:16;;;;;;;11.13;8.23;;;22.20;73.30;;;;;;5092395;28;20024;-78
2021/08/20 10:56:42;;;;;;;12.05;9.25;;;22.10;73.50;;;;;;5094483;28;20031;-77
2021/08/20 10:59:07;;;;;;;8.52;6.43;;;22.10;74.10;;;;;;5104713;28;20020;-77
2021/08/20 11:01:33;;;;;;;8.95;7.30;;;22.00;72.80;;;;;;5109688;28;20024;-78
2021/08/20 11:03:59;;;;;;;8.18;6.32;;;22.00;73.30;;;;;;5099092;28;20028;-78
2021/08/20 11:06:51;;;;;;;8.95;5.50;;;22.00;73.10;;;;;;5092295;28;20476;-78
2021/08/20 11:09:28;;;;;;;10.35;6.50;;;22.10;73.30;;;;;;5092963;28;20016;-78
2021/08/20 11:11:54;;;;;;;12.00;6.72;;;22.30;73.00;;;;;;5091898;28;20020;-78
2021/08/20 11:14:32;;;;;;;10.48;7.43;;;22.40;72.60;;;;;;5092810;28;20047;-78
2021/08/20 11:16:58;;;;;;;8.48;6.18;;;22.50;72.20;;;;;;5091461;28;20370;-77
2021/08/20 11:19:54;;;;;;;7.55;4.85;;;22.50;71.30;;;;;;5091506;28;20035;-77
2021/08/20 11:22:23;;;;;;;6.65;3.25;;;22.60;68.70;;;;;;5088194;28;20103;-77
2021/08/20 11:25:08;;;;;;;7.82;4.50;;;22.80;69.20;;;;;;5091701;28;20017;-77
2021/08/20 11:27:33;;;;;;;8.48;4.85;;;23.00;68.40;;;;;;5091379;28;20566;-77
2021/08/20 11:30:01;;;;;;;8.32;4.60;;;23.20;68.20;;;;;;5093958;28;20024;-77
2021/08/20 11:32:27;;;;;;;7.82;4.90;;;23.40;67.70;;;;;;5095412;28;20065;-76
2021/08/20 11:34:53;;;;;;;7.25;5.25;;;23.50;67.00;;;;;;5096686;28;20431;-77
2021/08/20 11:37:18;;;;;;;8.15;4.90;;;23.70;66.50;;;;;;5101644;28;20062;-77
2021/08/20 11:40:09;;;;;;;9.00;5.20;;;23.80;66.10;;;;;;5093035;28;20027;-79
2021/08/20 11:42:35;;;;;;;8.18;5.15;;;24.20;65.90;;;;;;5096766;28;20115;-76
2021/08/20 11:45:22;;;;;;;9.02;6.47;;;24.50;64.40;;;;;;5099032;28;20051;-76
2021/08/20 11:47:48;;;;;;;7.50;4.78;;;24.60;63.60;;;;;;5092613;28;20024;-76
2021/08/20 11:50:14;;;;;;;7.60;4.97;;;24.50;64.00;;;;;;5091476;28;20385;-76
2021/08/20 11:52:49;;;;;;;7.93;4.53;;;24.60;64.30;;;;;;5094484;28;20372;-76
2021/08/20 11:55:16;;;;;;;8.18;4.38;;;24.90;63.00;;;;;;5095493;28;20024;-76
2021/08/20 11:57:42;;;;;;;8.10;4.30;;;24.90;64.00;;;;;;5096866;28;20039;-77
2021/08/20 12:00:08;;;;;;;6.93;5.03;;;24.90;63.70;;;;;;5095320;28;20028;-76
2021/08/20 12:02:34;;;;;;;6.35;4.80;;;24.80;62.60;;;;;;5096709;28;20036;-76
2021/08/20 12:05:19;;;;;;;7.57;5.50;;;24.70;64.20;;;;;;5096852;28;20036;-76
2021/08/20 12:07:45;;;;;;;8.05;5.57;;;24.80;63.70;;;;;;5096344;28;20128;-77
2021/08/20 12:10:14;;;;;;;8.05;4.85;;;24.80;63.80;;;;;;5095302;28;20027;-76
2021/08/20 12:12:41;;;;;;;9.23;6.70;;;24.80;63.80;;;;;;5096921;28;20467;-76
2021/08/20 12:15:08;;;;;;;6.90;5.10;;;24.80;62.70;;;;;;5100545;28;20024;-76
2021/08/20 12:17:34;;;;;;;7.03;4.93;;;24.90;63.10;;;;;;5112021;28;20028;-77
2021/08/20 12:20:15;;;;;;;8.75;6.25;;;24.70;62.60;;;;;;5095372;28;20063;-77
2021/08/20 12:22:48;;;;;;;14.00;8.50;;;24.50;63.40;;;;;;5095617;28;20564;-77
2021/08/20 12:25:24;;;;;;;9.82;6.30;;;24.30;64.60;;;;;;5095844;28;20107;-77
2021/08/20 12:27:51;;;;;;;9.35;6.40;;;24.20;64.70;;;;;;5094274;28;20043;-77
2021/08/20 12:30:22;;;;;;;10.25;5.95;;;24.50;66.20;;;;;;5095793;28;20071;-76
2021/08/20 12:32:58;;;;;;;11.27;8.68;;;24.90;64.90;;;;;;5096219;28;20024;-77